createdAt,value
2023-02-27T00:00:27.174Z,59.88
2023-02-27T00:02:54.226Z,59.33
2023-02-27T00:05:22.960Z,59.66
2023-02-27T00:07:50.376Z,59.25
2023-02-27T00:10:18.074Z,59.22
2023-02-27T00:12:45.105Z,59.24
2023-02-27T00:15:17.960Z,59.40
2023-02-27T00:17:45.678Z,59.33
2023-02-27T00:20:15.258Z,59.30
2023-02-27T00:22:43.880Z,59.67
2023-02-27T00:25:11.504Z,59.20
2023-02-27T00:27:39.435Z,59.24
2023-02-27T00:30:10.881Z,59.40
2023-02-27T00:32:38.037Z,59.08
2023-02-27T00:35:06.767Z,58.64
2023-02-27T00:37:34.665Z,58.83
2023-02-27T00:40:02.401Z,59.09
2023-02-27T00:42:31.018Z,58.68
2023-02-27T00:44:58.595Z,58.77
2023-02-27T00:47:25.563Z,59.21
2023-02-27T00:49:53.508Z,59.69
2023-02-27T00:52:20.377Z,59.53
2023-02-27T00:54:47.275Z,59.46
2023-02-27T00:57:14.450Z,59.66
2023-02-27T00:59:41.506Z,59.98
2023-02-27T01:02:08.691Z,60.84
2023-02-27T01:04:36.183Z,62.28
2023-02-27T01:07:03.547Z,61.79
2023-02-27T01:09:30.544Z,61.91
2023-02-27T01:11:57.804Z,62.80
2023-02-27T01:14:24.965Z,62.92
2023-02-27T01:16:52.110Z,63.12
2023-02-27T01:19:19.285Z,62.96
2023-02-27T01:21:46.409Z,63.40
2023-02-27T01:24:13.623Z,62.43
2023-02-27T01:26:41.007Z,62.72
2023-02-27T01:29:09.494Z,62.12
2023-02-27T01:31:36.408Z,61.96
2023-02-27T01:34:03.873Z,62.48
2023-02-27T01:36:31.760Z,63.22
2023-02-27T01:38:58.745Z,62.01
2023-02-27T01:41:26.060Z,61.40
2023-02-27T01:44:02.309Z,61.16
2023-02-27T01:46:31.285Z,60.81
2023-02-27T01:49:10.011Z,61.94
2023-02-27T01:51:42.161Z,61.17
2023-02-27T01:54:10.489Z,60.68
2023-02-27T01:56:37.522Z,60.62
2023-02-27T01:59:08.794Z,60.76
2023-02-27T02:01:36.733Z,60.38
2023-02-27T02:04:27.322Z,59.68
2023-02-27T02:07:02.053Z,60.44
2023-02-27T02:09:29.683Z,61.38
2023-02-27T02:11:59.495Z,60.17
2023-02-27T02:14:26.505Z,60.34
2023-02-27T02:17:25.669Z,60.80
2023-02-27T02:20:25.651Z,60.16
2023-02-27T02:23:34.735Z,60.77
2023-02-27T02:26:25.841Z,60.37
2023-02-27T02:29:23.318Z,60.39
2023-02-27T02:32:10.162Z,60.67
2023-02-27T02:35:05.637Z,60.49
2023-02-27T02:37:51.337Z,60.64
2023-02-27T02:40:57.296Z,60.92
2023-02-27T02:43:55.849Z,61.42
2023-02-27T02:46:35.740Z,61.64
2023-02-27T02:49:17.350Z,60.92
2023-02-27T02:52:04.788Z,61.31
2023-02-27T02:54:55.272Z,61.46
2023-02-27T02:57:35.439Z,61.12
2023-02-27T03:00:10.222Z,60.91
2023-02-27T03:02:47.260Z,60.83
2023-02-27T03:05:32.996Z,60.99
2023-02-27T03:08:09.013Z,61.11
2023-02-27T03:10:43.430Z,61.20
2023-02-27T03:13:18.279Z,61.13
2023-02-27T03:15:50.548Z,61.13
2023-02-27T03:18:24.667Z,61.75
2023-02-27T03:21:22.808Z,62.17
2023-02-27T03:23:53.305Z,62.16
2023-02-27T03:26:27.906Z,62.82
2023-02-27T03:28:57.127Z,62.64
2023-02-27T03:31:33.142Z,63.46
2023-02-27T03:34:18.916Z,62.61
2023-02-27T03:37:00.624Z,62.80
2023-02-27T03:39:51.163Z,62.83
2023-02-27T03:42:38.975Z,63.31
2023-02-27T03:45:20.487Z,63.48
2023-02-27T03:47:47.567Z,62.93
2023-02-27T03:50:15.557Z,63.28
2023-02-27T03:52:43.898Z,63.16
2023-02-27T03:55:17.741Z,63.33
2023-02-27T03:57:46.741Z,63.02
2023-02-27T04:00:20.525Z,63.30
2023-02-27T04:02:51.195Z,63.14
2023-02-27T04:05:23.305Z,62.75
2023-02-27T04:08:51.547Z,62.01
2023-02-27T04:11:43.049Z,62.29
2023-02-27T04:14:40.404Z,61.64
2023-02-27T04:17:24.545Z,61.17
2023-02-27T04:19:57.450Z,61.29
2023-02-27T04:22:30.432Z,60.95
2023-02-27T04:25:21.572Z,60.88
2023-02-27T04:28:00.490Z,61.13
2023-02-27T04:30:45.648Z,61.28
2023-02-27T04:34:03.035Z,60.98
2023-02-27T04:36:45.105Z,61.32
2023-02-27T04:39:23.962Z,61.35
2023-02-27T04:42:02.538Z,60.87
2023-02-27T04:44:33.034Z,60.76
2023-02-27T04:47:01.671Z,60.55
2023-02-27T04:49:35.049Z,60.35
2023-02-27T04:52:21.343Z,60.40
2023-02-27T04:54:53.954Z,61.07
2023-02-27T04:57:27.701Z,60.93
2023-02-27T04:59:56.081Z,60.57
2023-02-27T05:02:33.416Z,60.08
2023-02-27T05:05:05.065Z,60.26
2023-02-27T05:07:54.529Z,60.55
2023-02-27T05:10:55.735Z,61.05
2023-02-27T05:13:35.247Z,61.28
2023-02-27T05:16:28.614Z,60.77
2023-02-27T05:18:56.758Z,60.99
2023-02-27T05:21:49.015Z,61.00
2023-02-27T05:24:37.609Z,61.56
2023-02-27T05:27:38.968Z,61.60
2023-02-27T05:30:42.040Z,61.26
2023-02-27T05:33:35.007Z,61.34
2023-02-27T05:36:16.139Z,61.62
2023-02-27T05:38:59.736Z,61.16
2023-02-27T05:41:33.275Z,61.24
2023-02-27T05:44:14.074Z,61.65
2023-02-27T05:46:49.267Z,61.52
2023-02-27T05:49:27.441Z,61.54
2023-02-27T05:51:57.403Z,61.28
2023-02-27T05:54:27.103Z,61.28
2023-02-27T05:56:58.183Z,61.74
2023-02-27T05:59:46.049Z,61.90
2023-02-27T06:02:13.519Z,62.00
2023-02-27T06:04:41.484Z,62.53
2023-02-27T06:07:09.353Z,62.12
2023-02-27T06:09:36.398Z,61.94
2023-02-27T06:12:03.340Z,62.16
2023-02-27T06:14:30.260Z,62.06
2023-02-27T06:16:57.239Z,62.36
2023-02-27T06:19:24.264Z,62.33
2023-02-27T06:21:51.466Z,62.74
2023-02-27T06:24:18.522Z,62.27
2023-02-27T06:26:45.568Z,62.55
2023-02-27T06:29:12.421Z,62.61
2023-02-27T06:31:39.464Z,62.92
2023-02-27T06:34:06.397Z,63.09
2023-02-27T06:36:33.437Z,62.96
2023-02-27T06:39:00.362Z,62.79
2023-02-27T06:41:27.357Z,62.70
2023-02-27T06:43:55.822Z,62.75
2023-02-27T06:46:22.776Z,62.95
2023-02-27T06:48:49.692Z,63.22
2023-02-27T06:51:16.839Z,63.01
2023-02-27T06:53:43.782Z,63.17
2023-02-27T06:56:10.644Z,63.04
2023-02-27T06:58:37.585Z,62.74
2023-02-27T07:01:04.741Z,63.14
2023-02-27T07:03:31.624Z,63.01
2023-02-27T07:05:59.272Z,62.91
2023-02-27T07:08:26.527Z,62.87
2023-02-27T07:10:53.702Z,63.21
2023-02-27T07:13:20.724Z,62.83
2023-02-27T07:15:47.862Z,62.60
2023-02-27T07:18:14.855Z,62.84
2023-02-27T07:20:41.900Z,62.49
2023-02-27T07:23:08.898Z,62.71
2023-02-27T07:25:36.014Z,61.82
2023-02-27T07:28:04.530Z,62.21
2023-02-27T07:30:31.701Z,62.29
2023-02-27T07:32:58.773Z,62.66
2023-02-27T07:35:25.851Z,62.54
2023-02-27T07:37:52.960Z,62.65
2023-02-27T07:40:19.974Z,62.50
2023-02-27T07:42:52.983Z,62.52
2023-02-27T07:45:20.095Z,62.23
2023-02-27T07:47:47.082Z,62.21
2023-02-27T07:50:14.381Z,62.29
2023-02-27T07:52:42.183Z,62.30
2023-02-27T07:55:11.027Z,61.89
2023-02-27T07:57:38.264Z,62.15
2023-02-27T08:00:06.828Z,61.74
2023-02-27T08:02:39.467Z,61.45
2023-02-27T08:05:07.083Z,61.39
2023-02-27T08:07:34.036Z,60.92
2023-02-27T08:10:00.930Z,60.46
2023-02-27T08:12:27.852Z,60.06
2023-02-27T08:14:54.821Z,59.54
2023-02-27T08:17:21.763Z,60.22
2023-02-27T08:19:48.713Z,60.43
2023-02-27T08:22:15.822Z,59.47
2023-02-27T08:24:42.765Z,59.09
2023-02-27T08:27:09.751Z,59.13
2023-02-27T08:29:36.682Z,58.66
2023-02-27T08:32:04.977Z,58.84
2023-02-27T08:34:31.969Z,58.84
2023-02-27T08:36:59.308Z,59.05
2023-02-27T08:39:26.258Z,59.23
2023-02-27T08:41:53.687Z,58.84
2023-02-27T08:44:21.452Z,58.81
2023-02-27T08:46:48.370Z,58.50
2023-02-27T08:49:15.378Z,58.31
2023-02-27T08:51:42.294Z,57.31
2023-02-27T08:54:09.327Z,55.74
2023-02-27T08:56:36.557Z,56.17
2023-02-27T08:59:03.781Z,55.60
2023-02-27T09:01:34.750Z,55.52
2023-02-27T09:04:05.764Z,53.14
2023-02-27T09:06:38.262Z,53.89
2023-02-27T09:09:05.700Z,52.38
2023-02-27T09:11:32.959Z,51.41
2023-02-27T09:13:59.852Z,49.47
2023-02-27T09:16:27.573Z,46.92
2023-02-27T09:18:55.112Z,45.60
2023-02-27T09:21:23.734Z,44.34
2023-02-27T09:23:51.873Z,43.37
2023-02-27T09:26:18.901Z,41.50
2023-02-27T09:28:45.945Z,39.74
2023-02-27T09:31:13.589Z,38.19
2023-02-27T09:33:40.517Z,34.29
2023-02-27T09:36:08.464Z,30.71
2023-02-27T09:38:36.919Z,31.54
2023-02-27T09:41:05.398Z,30.35
2023-02-27T09:43:43.318Z,26.74
2023-02-27T09:46:18.652Z,24.45
2023-02-27T09:48:50.858Z,26.37
2023-02-27T09:51:19.360Z,25.15
2023-02-27T09:53:49.865Z,23.18
2023-02-27T09:56:32.530Z,21.30
2023-02-27T09:59:23.677Z,23.15
2023-02-27T10:02:09.363Z,20.52
2023-02-27T10:05:21.428Z,20.73
2023-02-27T10:08:14.606Z,20.54
2023-02-27T10:11:01.121Z,18.90
2023-02-27T10:13:31.040Z,20.82
2023-02-27T10:16:02.168Z,20.72
2023-02-27T10:18:35.966Z,19.58
2023-02-27T10:21:17.103Z,18.21
2023-02-27T10:24:02.003Z,15.86
2023-02-27T10:26:33.361Z,18.10
2023-02-27T10:29:14.479Z,16.65
2023-02-27T10:31:42.856Z,17.55
2023-02-27T10:34:16.440Z,15.45
2023-02-27T10:36:47.848Z,17.25
2023-02-27T10:39:18.828Z,16.73
2023-02-27T10:41:46.994Z,17.35
2023-02-27T10:44:19.140Z,15.30
2023-02-27T10:46:46.506Z,16.72
2023-02-27T10:49:21.910Z,15.14
2023-02-27T10:52:07.897Z,17.53
2023-02-27T10:54:35.484Z,16.99
2023-02-27T10:57:06.216Z,16.00
2023-02-27T10:59:37.057Z,15.91
2023-02-27T11:02:38.382Z,16.32
2023-02-27T11:05:08.240Z,15.69
2023-02-27T11:07:38.719Z,15.16
2023-02-27T11:10:14.491Z,16.88
2023-02-27T11:12:43.156Z,16.76
2023-02-27T11:15:16.241Z,15.10
2023-02-27T11:17:43.818Z,17.30
2023-02-27T11:20:35.963Z,16.70
2023-02-27T11:23:18.543Z,19.31
2023-02-27T11:25:45.739Z,18.65
2023-02-27T11:28:30.311Z,17.70
2023-02-27T11:31:15.450Z,18.11
2023-02-27T11:33:59.008Z,17.55
2023-02-27T11:36:45.491Z,19.06
2023-02-27T11:39:24.324Z,19.51
2023-02-27T11:41:51.583Z,21.16
2023-02-27T11:44:34.052Z,21.50
2023-02-27T11:47:16.149Z,22.31
2023-02-27T11:50:08.952Z,22.97
2023-02-27T11:53:11.085Z,24.01
2023-02-27T11:55:38.256Z,24.67
2023-02-27T11:58:15.117Z,25.70
2023-02-27T12:01:06.629Z,27.47
2023-02-27T12:03:46.564Z,28.87
2023-02-27T12:06:36.388Z,30.08
2023-02-27T12:09:14.895Z,30.99
2023-02-27T12:11:46.191Z,31.67
2023-02-27T12:14:23.054Z,31.72
2023-02-27T12:17:17.369Z,31.80
2023-02-27T12:19:56.312Z,31.78
2023-02-27T12:22:29.186Z,29.79
2023-02-27T12:25:14.584Z,29.20
2023-02-27T12:27:51.958Z,29.69
2023-02-27T12:30:25.728Z,27.92
2023-02-27T12:33:21.102Z,29.20
2023-02-27T12:35:55.902Z,29.48
2023-02-27T12:38:23.708Z,29.70
2023-02-27T12:41:23.405Z,29.85
2023-02-27T12:44:05.452Z,29.94
2023-02-27T12:46:42.320Z,29.41
2023-02-27T12:49:30.700Z,29.21
2023-02-27T12:52:16.593Z,28.67
2023-02-27T12:54:56.744Z,29.27
2023-02-27T12:57:23.720Z,28.37
2023-02-27T13:00:11.110Z,28.34
2023-02-27T13:03:13.049Z,28.86
2023-02-27T13:06:01.777Z,29.00
2023-02-27T13:08:28.629Z,28.93
2023-02-27T13:11:21.913Z,28.75
2023-02-27T13:14:01.989Z,29.03
2023-02-27T13:16:35.148Z,29.01
2023-02-27T13:19:15.428Z,29.29
2023-02-27T13:21:55.063Z,29.74
2023-02-27T13:24:29.335Z,29.52
2023-02-27T13:27:15.567Z,29.50
2023-02-27T13:30:11.663Z,28.57
2023-02-27T13:32:47.391Z,29.14
2023-02-27T13:35:21.706Z,29.06
2023-02-27T13:37:55.224Z,28.65
2023-02-27T13:40:28.438Z,29.32
2023-02-27T13:43:06.514Z,29.74
2023-02-27T13:45:53.503Z,29.88
2023-02-27T13:48:42.312Z,29.37
2023-02-27T13:51:35.099Z,29.75
2023-02-27T13:54:14.303Z,28.77
2023-02-27T13:56:50.803Z,29.78
2023-02-27T13:59:31.496Z,29.56
2023-02-27T14:01:59.847Z,29.72
2023-02-27T14:04:30.999Z,29.29
2023-02-27T14:07:04.789Z,29.04
2023-02-27T14:09:39.947Z,29.16
2023-02-27T14:12:30.980Z,29.07
2023-02-27T14:15:26.558Z,29.35
2023-02-27T14:18:13.902Z,29.35
2023-02-27T14:20:44.793Z,29.50
2023-02-27T14:23:17.621Z,29.13
2023-02-27T14:25:55.256Z,29.46
2023-02-27T14:28:30.503Z,29.34
2023-02-27T14:31:13.480Z,29.49
2023-02-27T14:33:50.541Z,29.87
2023-02-27T14:36:22.227Z,29.77
2023-02-27T14:38:53.238Z,30.14
2023-02-27T14:41:31.080Z,30.33
2023-02-27T14:43:59.094Z,30.27
2023-02-27T14:46:34.731Z,29.86
2023-02-27T14:49:05.510Z,30.30
2023-02-27T14:51:37.852Z,30.84
2023-02-27T14:54:06.685Z,30.98
2023-02-27T14:56:35.393Z,31.26
2023-02-27T14:59:04.686Z,31.35
2023-02-27T15:01:36.111Z,31.65
2023-02-27T15:04:05.073Z,31.61
2023-02-27T15:06:43.943Z,31.56
2023-02-27T15:09:22.886Z,31.46
2023-02-27T15:12:02.984Z,31.30
2023-02-27T15:14:34.778Z,31.62
2023-02-27T15:17:01.905Z,32.13
2023-02-27T15:19:30.629Z,32.21
2023-02-27T15:22:01.902Z,31.97
2023-02-27T15:24:49.782Z,31.94
2023-02-27T15:27:22.888Z,32.29
2023-02-27T15:30:00.461Z,33.06
2023-02-27T15:32:30.304Z,32.70
2023-02-27T15:35:12.654Z,32.60
2023-02-27T15:37:40.354Z,32.83
2023-02-27T15:40:15.714Z,33.28
2023-02-27T15:42:43.424Z,33.07
2023-02-27T15:45:19.768Z,33.53
2023-02-27T15:47:47.941Z,33.46
2023-02-27T15:50:17.773Z,33.58
2023-02-27T15:53:09.321Z,33.86
2023-02-27T15:55:40.674Z,33.65
2023-02-27T15:58:35.774Z,34.41
2023-02-27T16:01:09.513Z,34.63
2023-02-27T16:03:44.154Z,34.47
2023-02-27T16:06:32.997Z,34.86
2023-02-27T16:09:04.589Z,34.74
2023-02-27T16:11:35.143Z,34.84
2023-02-27T16:14:02.366Z,34.85
2023-02-27T16:16:38.830Z,34.97
2023-02-27T16:19:34.967Z,35.35
2023-02-27T16:22:16.483Z,35.17
2023-02-27T16:24:43.927Z,35.52
2023-02-27T16:27:22.309Z,35.56
2023-02-27T16:29:49.891Z,35.69
2023-02-27T16:32:34.684Z,35.63
2023-02-27T16:35:16.701Z,35.41
2023-02-27T16:37:45.325Z,35.33
2023-02-27T16:40:16.116Z,35.31
2023-02-27T16:42:43.806Z,35.60
2023-02-27T16:45:22.660Z,35.84
2023-02-27T16:47:52.478Z,35.60
2023-02-27T16:50:27.803Z,35.92
2023-02-27T16:52:54.958Z,35.59
2023-02-27T16:55:22.177Z,35.65
2023-02-27T16:57:49.388Z,36.22
2023-02-27T17:00:19.055Z,36.18
2023-02-27T17:02:47.121Z,36.09
2023-02-27T17:05:15.338Z,36.13
2023-02-27T17:07:42.926Z,36.27
2023-02-27T17:10:15.123Z,36.19
2023-02-27T17:12:44.094Z,36.28
2023-02-27T17:15:11.439Z,36.34
2023-02-27T17:17:38.445Z,36.11
2023-02-27T17:20:09.127Z,36.06
2023-02-27T17:22:38.570Z,36.23
2023-02-27T17:25:06.115Z,36.25
2023-02-27T17:27:33.153Z,36.61
2023-02-27T17:30:00.143Z,36.81
2023-02-27T17:32:27.078Z,36.65
2023-02-27T17:34:55.581Z,36.82
2023-02-27T17:37:23.525Z,36.67
2023-02-27T17:39:50.494Z,36.86
2023-02-27T17:42:18.781Z,36.92
2023-02-27T17:44:46.704Z,36.61
2023-02-27T17:47:14.512Z,36.75
2023-02-27T17:49:41.943Z,37.71
2023-02-27T17:52:09.420Z,38.65
2023-02-27T17:54:36.796Z,39.01
2023-02-27T17:57:06.808Z,39.37
2023-02-27T17:59:34.165Z,40.06
2023-02-27T18:02:01.113Z,40.14
2023-02-27T18:04:28.240Z,40.99
2023-02-27T18:06:55.510Z,41.59
2023-02-27T18:09:22.972Z,42.64
2023-02-27T18:11:50.357Z,42.40
2023-02-27T18:14:17.370Z,45.30
2023-02-27T18:16:45.238Z,45.90
2023-02-27T18:19:14.033Z,45.88
2023-02-27T18:21:42.609Z,47.29
2023-02-27T18:24:09.877Z,47.27
2023-02-27T18:26:37.496Z,46.58
2023-02-27T18:29:08.822Z,49.79
2023-02-27T18:31:42.843Z,49.18
2023-02-27T18:34:10.319Z,49.24
2023-02-27T18:36:38.619Z,48.99
2023-02-27T18:39:06.673Z,49.94
2023-02-27T18:41:34.487Z,48.56
2023-02-27T18:44:01.657Z,49.24
2023-02-27T18:46:29.442Z,49.71
2023-02-27T18:48:56.910Z,49.92
2023-02-27T18:51:24.396Z,49.29
2023-02-27T18:53:51.655Z,48.55
2023-02-27T18:56:22.838Z,48.78
2023-02-27T18:58:50.718Z,48.67
2023-02-27T19:01:26.577Z,50.65
2023-02-27T19:04:00.256Z,49.64
2023-02-27T19:06:28.218Z,49.83
2023-02-27T19:08:55.277Z,49.61
2023-02-27T19:11:25.043Z,49.77
2023-02-27T19:13:52.588Z,49.72
2023-02-27T19:16:19.792Z,49.37
2023-02-27T19:18:46.758Z,48.99
2023-02-27T19:21:13.811Z,49.11
2023-02-27T19:23:40.853Z,48.87
2023-02-27T19:26:07.798Z,49.45
2023-02-27T19:28:34.936Z,48.58
2023-02-27T19:31:07.414Z,48.78
2023-02-27T19:33:34.850Z,47.95
2023-02-27T19:36:06.742Z,48.31
2023-02-27T19:38:33.969Z,48.06
2023-02-27T19:41:05.718Z,48.45
2023-02-27T19:43:34.203Z,48.14
2023-02-27T19:46:05.951Z,48.60
2023-02-27T19:48:33.420Z,48.85
2023-02-27T19:51:04.915Z,48.42
2023-02-27T19:53:32.405Z,48.72
2023-02-27T19:56:11.057Z,48.64
2023-02-27T19:58:39.415Z,48.13
2023-02-27T20:01:07.299Z,48.48
2023-02-27T20:03:35.395Z,48.02
2023-02-27T20:06:06.476Z,48.64
2023-02-27T20:08:34.377Z,48.30
2023-02-27T20:11:03.533Z,48.14
2023-02-27T20:13:31.229Z,48.57
2023-02-27T20:16:04.304Z,48.95
2023-02-27T20:18:32.903Z,48.01
2023-02-27T20:21:05.784Z,47.75
2023-02-27T20:23:34.981Z,48.13
2023-02-27T20:26:12.052Z,47.95
2023-02-27T20:28:39.881Z,47.72
2023-02-27T20:31:08.604Z,47.44
2023-02-27T20:33:35.620Z,47.48
2023-02-27T20:36:04.421Z,47.00
2023-02-27T20:38:33.456Z,46.07
2023-02-27T20:41:01.125Z,45.36
2023-02-27T20:43:29.377Z,44.27
2023-02-27T20:45:56.236Z,43.37
2023-02-27T20:48:23.504Z,43.07
2023-02-27T20:50:50.455Z,40.07
2023-02-27T20:53:17.428Z,40.71
2023-02-27T20:55:50.363Z,38.40
2023-02-27T20:58:17.395Z,39.11
2023-02-27T21:00:44.419Z,38.64
2023-02-27T21:03:11.566Z,38.68
2023-02-27T21:05:38.453Z,39.00
2023-02-27T21:08:05.527Z,36.88
2023-02-27T21:10:32.605Z,38.20
2023-02-27T21:12:59.482Z,36.18
2023-02-27T21:15:26.473Z,37.37
2023-02-27T21:17:53.505Z,36.93
2023-02-27T21:20:20.481Z,36.22
2023-02-27T21:22:47.683Z,35.02
2023-02-27T21:25:15.185Z,36.95
2023-02-27T21:27:42.316Z,35.62
2023-02-27T21:30:11.321Z,34.61
2023-02-27T21:32:38.233Z,34.39
2023-02-27T21:35:05.621Z,35.17
2023-02-27T21:37:32.869Z,34.88
2023-02-27T21:40:01.919Z,34.95
2023-02-27T21:42:29.436Z,35.10
2023-02-27T21:44:56.326Z,34.14
2023-02-27T21:47:23.323Z,34.03
2023-02-27T21:49:51.559Z,33.79
2023-02-27T21:52:18.558Z,34.94
2023-02-27T21:54:45.510Z,34.72
2023-02-27T21:57:12.579Z,34.13
2023-02-27T21:59:40.940Z,34.32
2023-02-27T22:02:08.573Z,34.61
2023-02-27T22:04:35.554Z,34.56
2023-02-27T22:07:02.470Z,34.77
2023-02-27T22:09:29.335Z,34.65
2023-02-27T22:11:56.418Z,33.89
2023-02-27T22:14:24.706Z,33.66
2023-02-27T22:16:51.654Z,33.75
2023-02-27T22:19:20.069Z,33.80
2023-02-27T22:21:47.453Z,34.23
2023-02-27T22:24:14.810Z,34.11
2023-02-27T22:26:42.860Z,33.73
2023-02-27T22:29:09.868Z,34.57
2023-02-27T22:31:38.782Z,33.85
2023-02-27T22:34:08.538Z,34.05
2023-02-27T22:36:36.707Z,34.09
2023-02-27T22:39:05.674Z,34.44
2023-02-27T22:41:35.296Z,34.48
2023-02-27T22:44:02.852Z,34.98
2023-02-27T22:46:38.451Z,34.15
2023-02-27T22:49:10.388Z,34.98
2023-02-27T22:51:37.709Z,34.75
2023-02-27T22:54:06.293Z,34.69
2023-02-27T22:56:34.018Z,34.17
2023-02-27T22:59:00.999Z,34.79
2023-02-27T23:01:30.852Z,34.83
2023-02-27T23:04:01.116Z,34.31
2023-02-27T23:06:37.022Z,34.52
2023-02-27T23:09:05.862Z,34.55
2023-02-27T23:11:33.280Z,34.55
2023-02-27T23:14:00.466Z,34.79
2023-02-27T23:16:27.594Z,34.54
2023-02-27T23:18:58.188Z,34.84
2023-02-27T23:21:37.067Z,34.64
2023-02-27T23:24:09.076Z,34.76
2023-02-27T23:26:37.655Z,35.17
2023-02-27T23:29:05.922Z,35.36
2023-02-27T23:31:35.394Z,35.28
2023-02-27T23:34:05.926Z,35.09
2023-02-27T23:36:34.407Z,35.32
2023-02-27T23:39:03.047Z,35.13
2023-02-27T23:41:31.255Z,35.50
2023-02-27T23:43:58.463Z,35.38
2023-02-27T23:46:30.362Z,35.16
2023-02-27T23:49:01.964Z,35.73
2023-02-27T23:51:30.759Z,36.27
2023-02-27T23:53:58.434Z,36.77
2023-02-27T23:56:29.084Z,37.53
2023-02-27T23:59:01.509Z,38.42
